sensor_id;sensor_type;location;lat;lon;timestamp;temperature;humidity
70300;HTU21D;57704;51.112;5.878;2022-08-11T00:01:26;24.24;41.90
70300;HTU21D;57704;51.112;5.878;2022-08-11T00:03:58;24.19;41.97
70300;HTU21D;57704;51.112;5.878;2022-08-11T00:06:29;24.16;42.11
70300;HTU21D;57704;51.112;5.878;2022-08-11T00:08:58;24.12;42.27
70300;HTU21D;57704;51.112;5.878;2022-08-11T00:11:37;24.09;42.36
70300;HTU21D;57704;51.112;5.878;2022-08-11T00:14:19;24.06;42.32
70300;HTU21D;57704;51.112;5.878;2022-08-11T00:16:58;24.01;42.38
70300;HTU21D;57704;51.112;5.878;2022-08-11T00:19:28;23.97;42.47
70300;HTU21D;57704;51.112;5.878;2022-08-11T00:21:55;23.91;42.58
70300;HTU21D;57704;51.112;5.878;2022-08-11T00:24:23;23.87;42.74
70300;HTU21D;57704;51.112;5.878;2022-08-11T00:26:51;23.83;42.90
70300;HTU21D;57704;51.112;5.878;2022-08-11T00:29:19;23.80;43.02
70300;HTU21D;57704;51.112;5.878;2022-08-11T00:31:54;23.76;43.13
70300;HTU21D;57704;51.112;5.878;2022-08-11T00:34:25;23.71;43.19
70300;HTU21D;57704;51.112;5.878;2022-08-11T00:37:00;23.65;43.28
70300;HTU21D;57704;51.112;5.878;2022-08-11T00:39:32;23.60;43.35
70300;HTU21D;57704;51.112;5.878;2022-08-11T00:58:41;23.31;43.98
70300;HTU21D;57704;51.112;5.878;2022-08-11T01:04:14;23.26;44.03
70300;HTU21D;57704;51.112;5.878;2022-08-11T01:12:45;23.17;44.29
70300;HTU21D;57704;51.112;5.878;2022-08-11T01:21:25;23.09;44.58
70300;HTU21D;57704;51.112;5.878;2022-08-11T01:41:03;22.85;45.23
70300;HTU21D;57704;51.112;5.878;2022-08-11T02:00:49;22.56;45.96
70300;HTU21D;57704;51.112;5.878;2022-08-11T02:03:45;22.52;46.08
70300;HTU21D;57704;51.112;5.878;2022-08-11T02:06:25;22.51;46.11
70300;HTU21D;57704;51.112;5.878;2022-08-11T02:12:14;22.44;46.20
70300;HTU21D;57704;51.112;5.878;2022-08-11T02:20:27;22.34;46.52
70300;HTU21D;57704;51.112;5.878;2022-08-11T02:26:46;22.26;46.70
70300;HTU21D;57704;51.112;5.878;2022-08-11T02:29:31;22.24;46.74
70300;HTU21D;57704;51.112;5.878;2022-08-11T02:40:47;22.10;47.17
70300;HTU21D;57704;51.112;5.878;2022-08-11T02:43:45;22.05;47.26
70300;HTU21D;57704;51.112;5.878;2022-08-11T02:46:22;22.03;47.29
70300;HTU21D;57704;51.112;5.878;2022-08-11T02:55:21;21.92;47.65
70300;HTU21D;57704;51.112;5.878;2022-08-11T02:57:56;21.90;47.70
70300;HTU21D;57704;51.112;5.878;2022-08-11T03:00:42;21.84;47.74
70300;HTU21D;57704;51.112;5.878;2022-08-11T03:08:53;21.75;48.09
70300;HTU21D;57704;51.112;5.878;2022-08-11T03:12:07;21.70;48.21
70300;HTU21D;57704;51.112;5.878;2022-08-11T03:18:06;21.60;48.47
70300;HTU21D;57704;51.112;5.878;2022-08-11T03:29:30;21.53;48.69
70300;HTU21D;57704;51.112;5.878;2022-08-11T03:32:23;21.48;48.81
70300;HTU21D;57704;51.112;5.878;2022-08-11T03:34:53;21.44;48.85
70300;HTU21D;57704;51.112;5.878;2022-08-11T03:43:02;21.25;49.15
70300;HTU21D;57704;51.112;5.878;2022-08-11T03:48:18;21.21;49.25
70300;HTU21D;57704;51.112;5.878;2022-08-11T03:51:05;21.22;49.29
70300;HTU21D;57704;51.112;5.878;2022-08-11T03:53:54;21.23;49.25
70300;HTU21D;57704;51.112;5.878;2022-08-11T04:08:06;21.01;49.70
70300;HTU21D;57704;51.112;5.878;2022-08-11T04:16:50;20.90;49.95
70300;HTU21D;57704;51.112;5.878;2022-08-11T04:19:52;20.89;50.05
70300;HTU21D;57704;51.112;5.878;2022-08-11T04:32:19;20.93;50.25
70300;HTU21D;57704;51.112;5.878;2022-08-11T04:34:32;20.95;50.27
70300;HTU21D;57704;51.112;5.878;2022-08-11T05:01:36;21.02;50.99
70300;HTU21D;57704;51.112;5.878;2022-08-11T05:13:06;20.98;51.42
70300;HTU21D;57704;51.112;5.878;2022-08-11T05:15:54;20.95;51.51
70300;HTU21D;57704;51.112;5.878;2022-08-11T05:18:51;20.99;51.45
70300;HTU21D;57704;51.112;5.878;2022-08-11T05:21:40;21.01;51.40
70300;HTU21D;57704;51.112;5.878;2022-08-11T05:27:37;20.99;51.40
70300;HTU21D;57704;51.112;5.878;2022-08-11T05:30:28;21.02;51.45
70300;HTU21D;57704;51.112;5.878;2022-08-11T05:33:22;21.02;51.39
70300;HTU21D;57704;51.112;5.878;2022-08-11T05:39:19;20.96;51.80
70300;HTU21D;57704;51.112;5.878;2022-08-11T05:42:06;20.94;51.88
70300;HTU21D;57704;51.112;5.878;2022-08-11T05:44:55;20.94;51.93
70300;HTU21D;57704;51.112;5.878;2022-08-11T05:47:41;20.94;51.96
70300;HTU21D;57704;51.112;5.878;2022-08-11T05:50:27;20.98;52.05
70300;HTU21D;57704;51.112;5.878;2022-08-11T05:53:14;21.07;52.00
70300;HTU21D;57704;51.112;5.878;2022-08-11T05:56:04;21.16;51.76
70300;HTU21D;57704;51.112;5.878;2022-08-11T05:58:49;21.19;51.82
70300;HTU21D;57704;51.112;5.878;2022-08-11T06:01:29;21.22;51.67
70300;HTU21D;57704;51.112;5.878;2022-08-11T06:03:57;21.24;51.73
70300;HTU21D;57704;51.112;5.878;2022-08-11T06:06:58;21.22;51.55
70300;HTU21D;57704;51.112;5.878;2022-08-11T06:09:39;21.29;51.53
70300;HTU21D;57704;51.112;5.878;2022-08-11T06:12:31;21.42;51.43
70300;HTU21D;57704;51.112;5.878;2022-08-11T06:15:09;21.50;51.20
70300;HTU21D;57704;51.112;5.878;2022-08-11T06:17:44;21.66;50.96
70300;HTU21D;57704;51.112;5.878;2022-08-11T06:20:14;21.76;50.72
70300;HTU21D;57704;51.112;5.878;2022-08-11T06:22:44;21.83;50.66
70300;HTU21D;57704;51.112;5.878;2022-08-11T06:25:14;21.91;50.50
70300;HTU21D;57704;51.112;5.878;2022-08-11T06:27:53;21.97;50.21
70300;HTU21D;57704;51.112;5.878;2022-08-11T06:30:39;22.06;50.09
70300;HTU21D;57704;51.112;5.878;2022-08-11T06:33:30;22.18;49.95
70300;HTU21D;57704;51.112;5.878;2022-08-11T06:36:15;22.32;49.77
70300;HTU21D;57704;51.112;5.878;2022-08-11T06:39:15;22.48;49.37
70300;HTU21D;57704;51.112;5.878;2022-08-11T06:41:58;22.61;49.15
70300;HTU21D;57704;51.112;5.878;2022-08-11T06:44:43;22.75;49.00
70300;HTU21D;57704;51.112;5.878;2022-08-11T06:47:15;22.90;48.76
70300;HTU21D;57704;51.112;5.878;2022-08-11T06:49:47;23.07;48.37
70300;HTU21D;57704;51.112;5.878;2022-08-11T06:52:42;23.27;47.50
70300;HTU21D;57704;51.112;5.878;2022-08-11T06:55:22;23.49;47.36
70300;HTU21D;57704;51.112;5.878;2022-08-11T06:58:16;23.65;46.86
70300;HTU21D;57704;51.112;5.878;2022-08-11T07:01:09;23.80;46.64
70300;HTU21D;57704;51.112;5.878;2022-08-11T07:03:59;23.90;46.38
70300;HTU21D;57704;51.112;5.878;2022-08-11T07:09:23;24.29;45.86
70300;HTU21D;57704;51.112;5.878;2022-08-11T07:12:35;24.66;45.59
70300;HTU21D;57704;51.112;5.878;2022-08-11T07:15:30;25.00;45.32
70300;HTU21D;57704;51.112;5.878;2022-08-11T07:18:22;25.36;44.82
70300;HTU21D;57704;51.112;5.878;2022-08-11T07:24:14;26.02;43.75
70300;HTU21D;57704;51.112;5.878;2022-08-11T07:27:09;26.35;42.80
70300;HTU21D;57704;51.112;5.878;2022-08-11T07:30:06;26.60;42.61
70300;HTU21D;57704;51.112;5.878;2022-08-11T07:32:49;26.89;41.78
70300;HTU21D;57704;51.112;5.878;2022-08-11T07:35:30;27.20;41.29
70300;HTU21D;57704;51.112;5.878;2022-08-11T07:38:10;27.75;39.44
70300;HTU21D;57704;51.112;5.878;2022-08-11T07:40:44;28.18;37.27
70300;HTU21D;57704;51.112;5.878;2022-08-11T07:43:15;28.67;37.29
70300;HTU21D;57704;51.112;5.878;2022-08-11T07:45:45;29.27;36.19
70300;HTU21D;57704;51.112;5.878;2022-08-11T07:48:34;30.11;32.62
70300;HTU21D;57704;51.112;5.878;2022-08-11T07:51:22;30.49;32.28
70300;HTU21D;57704;51.112;5.878;2022-08-11T07:54:09;30.67;31.63
70300;HTU21D;57704;51.112;5.878;2022-08-11T07:56:41;31.05;30.64
70300;HTU21D;57704;51.112;5.878;2022-08-11T07:59:13;31.27;30.52
70300;HTU21D;57704;51.112;5.878;2022-08-11T08:01:59;31.64;30.24
70300;HTU21D;57704;51.112;5.878;2022-08-11T08:04:51;31.94;29.60
70300;HTU21D;57704;51.112;5.878;2022-08-11T08:07:37;32.13;28.78
70300;HTU21D;57704;51.112;5.878;2022-08-11T08:10:25;32.28;28.88
70300;HTU21D;57704;51.112;5.878;2022-08-11T08:13:14;32.58;28.36
70300;HTU21D;57704;51.112;5.878;2022-08-11T08:16:19;32.99;27.65
70300;HTU21D;57704;51.112;5.878;2022-08-11T08:19:13;33.19;26.30
70300;HTU21D;57704;51.112;5.878;2022-08-11T08:21:45;33.01;26.81
70300;HTU21D;57704;51.112;5.878;2022-08-11T08:24:17;33.06;26.00
70300;HTU21D;57704;51.112;5.878;2022-08-11T08:26:50;32.99;26.51
70300;HTU21D;57704;51.112;5.878;2022-08-11T08:29:35;33.07;26.26
70300;HTU21D;57704;51.112;5.878;2022-08-11T08:32:21;33.28;25.66
70300;HTU21D;57704;51.112;5.878;2022-08-11T08:34:54;33.27;25.92
70300;HTU21D;57704;51.112;5.878;2022-08-11T08:37:28;33.29;25.82
70300;HTU21D;57704;51.112;5.878;2022-08-11T08:39:58;33.42;25.43
70300;HTU21D;57704;51.112;5.878;2022-08-11T08:42:38;33.37;24.29
70300;HTU21D;57704;51.112;5.878;2022-08-11T08:45:13;33.37;25.43
70300;HTU21D;57704;51.112;5.878;2022-08-11T08:47:51;33.49;24.56
70300;HTU21D;57704;51.112;5.878;2022-08-11T08:50:26;33.34;24.85
70300;HTU21D;57704;51.112;5.878;2022-08-11T08:53:31;33.13;24.69
70300;HTU21D;57704;51.112;5.878;2022-08-11T08:56:03;33.11;25.12
70300;HTU21D;57704;51.112;5.878;2022-08-11T08:58:37;33.35;24.97
70300;HTU21D;57704;51.112;5.878;2022-08-11T09:01:14;33.86;24.82
70300;HTU21D;57704;51.112;5.878;2022-08-11T09:03:51;34.31;23.79
70300;HTU21D;57704;51.112;5.878;2022-08-11T09:06:20;34.51;23.44
70300;HTU21D;57704;51.112;5.878;2022-08-11T09:08:50;34.53;23.10
70300;HTU21D;57704;51.112;5.878;2022-08-11T09:11:24;34.51;22.45
70300;HTU21D;57704;51.112;5.878;2022-08-11T09:14:12;34.50;22.67
70300;HTU21D;57704;51.112;5.878;2022-08-11T09:16:44;34.36;22.88
70300;HTU21D;57704;51.112;5.878;2022-08-11T09:19:23;34.48;22.88
70300;HTU21D;57704;51.112;5.878;2022-08-11T09:21:52;34.75;22.74
70300;HTU21D;57704;51.112;5.878;2022-08-11T09:24:40;35.01;21.76
70300;HTU21D;57704;51.112;5.878;2022-08-11T09:27:30;34.92;21.72
70300;HTU21D;57704;51.112;5.878;2022-08-11T09:30:10;35.01;22.14
70300;HTU21D;57704;51.112;5.878;2022-08-11T09:32:50;35.25;20.71
70300;HTU21D;57704;51.112;5.878;2022-08-11T09:35:23;35.09;21.30
70300;HTU21D;57704;51.112;5.878;2022-08-11T09:37:52;34.99;21.46
70300;HTU21D;57704;51.112;5.878;2022-08-11T09:40:50;35.00;21.09
70300;HTU21D;57704;51.112;5.878;2022-08-11T09:43:20;35.09;20.97
70300;HTU21D;57704;51.112;5.878;2022-08-11T09:46:07;35.25;21.37
70300;HTU21D;57704;51.112;5.878;2022-08-11T09:48:44;35.62;20.67
70300;HTU21D;57704;51.112;5.878;2022-08-11T09:51:13;35.67;20.08
70300;HTU21D;57704;51.112;5.878;2022-08-11T09:53:52;35.59;20.47
70300;HTU21D;57704;51.112;5.878;2022-08-11T09:56:23;35.59;20.68
70300;HTU21D;57704;51.112;5.878;2022-08-11T09:59:12;35.58;20.04
70300;HTU21D;57704;51.112;5.878;2022-08-11T10:01:47;35.54;19.66
70300;HTU21D;57704;51.112;5.878;2022-08-11T10:04:42;35.68;19.55
70300;HTU21D;57704;51.112;5.878;2022-08-11T10:07:15;35.73;19.53
70300;HTU21D;57704;51.112;5.878;2022-08-11T10:09:57;35.86;19.35
70300;HTU21D;57704;51.112;5.878;2022-08-11T10:12:37;36.16;19.38
70300;HTU21D;57704;51.112;5.878;2022-08-11T10:15:18;36.28;18.16
70300;HTU21D;57704;51.112;5.878;2022-08-11T10:18:10;36.26;18.48
70300;HTU21D;57704;51.112;5.878;2022-08-11T10:21:36;36.58;17.94
70300;HTU21D;57704;51.112;5.878;2022-08-11T10:24:06;36.70;18.15
70300;HTU21D;57704;51.112;5.878;2022-08-11T10:26:58;36.72;17.10
70300;HTU21D;57704;51.112;5.878;2022-08-11T10:29:39;36.63;16.96
70300;HTU21D;57704;51.112;5.878;2022-08-11T10:32:32;36.81;17.12
70300;HTU21D;57704;51.112;5.878;2022-08-11T10:35:19;37.08;17.08
70300;HTU21D;57704;51.112;5.878;2022-08-11T10:37:52;37.36;16.67
70300;HTU21D;57704;51.112;5.878;2022-08-11T10:40:34;37.38;16.40
70300;HTU21D;57704;51.112;5.878;2022-08-11T10:43:03;37.37;16.32
70300;HTU21D;57704;51.112;5.878;2022-08-11T10:45:44;37.35;16.27
70300;HTU21D;57704;51.112;5.878;2022-08-11T10:48:36;37.49;15.59
70300;HTU21D;57704;51.112;5.878;2022-08-11T10:51:06;37.35;14.62
70300;HTU21D;57704;51.112;5.878;2022-08-11T10:53:53;37.16;15.31
70300;HTU21D;57704;51.112;5.878;2022-08-11T10:56:41;37.00;15.35
70300;HTU21D;57704;51.112;5.878;2022-08-11T10:59:28;37.18;15.47
70300;HTU21D;57704;51.112;5.878;2022-08-11T11:01:57;37.64;14.42
70300;HTU21D;57704;51.112;5.878;2022-08-11T11:04:46;37.99;14.33
70300;HTU21D;57704;51.112;5.878;2022-08-11T11:07:34;38.25;13.67
70300;HTU21D;57704;51.112;5.878;2022-08-11T11:10:06;38.18;13.91
70300;HTU21D;57704;51.112;5.878;2022-08-11T11:12:53;37.80;13.04
70300;HTU21D;57704;51.112;5.878;2022-08-11T11:15:43;37.48;14.05
70300;HTU21D;57704;51.112;5.878;2022-08-11T11:18:39;37.79;14.07
70300;HTU21D;57704;51.112;5.878;2022-08-11T11:21:14;38.03;13.69
70300;HTU21D;57704;51.112;5.878;2022-08-11T11:23:58;37.87;13.39
70300;HTU21D;57704;51.112;5.878;2022-08-11T11:26:47;37.75;13.93
70300;HTU21D;57704;51.112;5.878;2022-08-11T11:32:40;38.98;12.28
70300;HTU21D;57704;51.112;5.878;2022-08-11T11:36:15;38.96;12.81
70300;HTU21D;57704;51.112;5.878;2022-08-11T11:38:47;39.29;12.14
70300;HTU21D;57704;51.112;5.878;2022-08-11T11:41:32;39.74;12.08
70300;HTU21D;57704;51.112;5.878;2022-08-11T11:44:07;40.06;11.56
70300;HTU21D;57704;51.112;5.878;2022-08-11T11:46:47;40.01;11.65
70300;HTU21D;57704;51.112;5.878;2022-08-11T11:49:36;40.22;11.78
70300;HTU21D;57704;51.112;5.878;2022-08-11T11:52:35;40.69;10.70
70300;HTU21D;57704;51.112;5.878;2022-08-11T11:55:08;40.95;11.09
70300;HTU21D;57704;51.112;5.878;2022-08-11T11:57:44;41.04;10.78
70300;HTU21D;57704;51.112;5.878;2022-08-11T12:00:33;40.91;10.75
70300;HTU21D;57704;51.112;5.878;2022-08-11T12:03:27;41.13;10.72
70300;HTU21D;57704;51.112;5.878;2022-08-11T12:05:57;41.45;10.13
70300;HTU21D;57704;51.112;5.878;2022-08-11T12:08:49;41.52;10.05
70300;HTU21D;57704;51.112;5.878;2022-08-11T12:11:22;41.56;10.37
70300;HTU21D;57704;51.112;5.878;2022-08-11T12:14:19;41.67;10.06
70300;HTU21D;57704;51.112;5.878;2022-08-11T12:16:53;41.73;10.17
70300;HTU21D;57704;51.112;5.878;2022-08-11T12:19:32;42.14;10.25
70300;HTU21D;57704;51.112;5.878;2022-08-11T12:22:04;42.37;9.82
70300;HTU21D;57704;51.112;5.878;2022-08-11T12:24:58;42.44;10.14
70300;HTU21D;57704;51.112;5.878;2022-08-11T12:27:47;42.21;10.06
70300;HTU21D;57704;51.112;5.878;2022-08-11T12:30:25;42.11;9.98
70300;HTU21D;57704;51.112;5.878;2022-08-11T12:33:06;41.78;9.59
70300;HTU21D;57704;51.112;5.878;2022-08-11T12:35:57;41.26;10.40
70300;HTU21D;57704;51.112;5.878;2022-08-11T12:38:39;41.09;10.73
70300;HTU21D;57704;51.112;5.878;2022-08-11T12:41:27;41.27;10.53
70300;HTU21D;57704;51.112;5.878;2022-08-11T12:44:26;41.51;10.84
70300;HTU21D;57704;51.112;5.878;2022-08-11T12:47:19;42.14;10.03
70300;HTU21D;57704;51.112;5.878;2022-08-11T12:49:54;42.17;9.92
70300;HTU21D;57704;51.112;5.878;2022-08-11T12:52:51;41.80;10.12
70300;HTU21D;57704;51.112;5.878;2022-08-11T12:55:27;41.42;10.33
70300;HTU21D;57704;51.112;5.878;2022-08-11T12:58:20;41.01;10.40
70300;HTU21D;57704;51.112;5.878;2022-08-11T13:00:53;40.70;10.89
70300;HTU21D;57704;51.112;5.878;2022-08-11T13:03:45;40.75;10.98
70300;HTU21D;57704;51.112;5.878;2022-08-11T13:06:32;41.10;10.81
70300;HTU21D;57704;51.112;5.878;2022-08-11T13:09:14;41.09;10.67
70300;HTU21D;57704;51.112;5.878;2022-08-11T13:11:41;40.76;10.76
70300;HTU21D;57704;51.112;5.878;2022-08-11T13:14:28;40.71;11.11
70300;HTU21D;57704;51.112;5.878;2022-08-11T13:16:59;40.86;10.85
70300;HTU21D;57704;51.112;5.878;2022-08-11T13:19:50;40.85;10.62
70300;HTU21D;57704;51.112;5.878;2022-08-11T13:22:49;40.70;10.38
70300;HTU21D;57704;51.112;5.878;2022-08-11T13:25:30;40.50;10.98
70300;HTU21D;57704;51.112;5.878;2022-08-11T13:28:10;40.55;10.19
70300;HTU21D;57704;51.112;5.878;2022-08-11T13:30:49;40.17;10.52
70300;HTU21D;57704;51.112;5.878;2022-08-11T13:33:47;39.89;10.76
70300;HTU21D;57704;51.112;5.878;2022-08-11T13:36:25;39.72;11.18
70300;HTU21D;57704;51.112;5.878;2022-08-11T13:38:58;39.68;11.01
70300;HTU21D;57704;51.112;5.878;2022-08-11T13:41:42;39.22;10.91
70300;HTU21D;57704;51.112;5.878;2022-08-11T13:44:23;38.78;11.41
70300;HTU21D;57704;51.112;5.878;2022-08-11T13:47:09;38.49;11.69
70300;HTU21D;57704;51.112;5.878;2022-08-11T13:49:39;38.36;12.07
70300;HTU21D;57704;51.112;5.878;2022-08-11T13:52:18;38.59;12.07
70300;HTU21D;57704;51.112;5.878;2022-08-11T13:54:50;38.59;11.85
70300;HTU21D;57704;51.112;5.878;2022-08-11T13:57:23;38.40;12.20
70300;HTU21D;57704;51.112;5.878;2022-08-11T14:00:01;38.35;12.14
70300;HTU21D;57704;51.112;5.878;2022-08-11T14:02:42;38.20;12.59
70300;HTU21D;57704;51.112;5.878;2022-08-11T14:05:27;38.34;12.18
70300;HTU21D;57704;51.112;5.878;2022-08-11T14:08:18;38.10;12.42
70300;HTU21D;57704;51.112;5.878;2022-08-11T14:10:57;37.87;12.55
70300;HTU21D;57704;51.112;5.878;2022-08-11T14:13:48;37.52;13.64
70300;HTU21D;57704;51.112;5.878;2022-08-11T14:16:23;37.46;13.53
70300;HTU21D;57704;51.112;5.878;2022-08-11T14:19:04;37.55;13.35
70300;HTU21D;57704;51.112;5.878;2022-08-11T14:21:42;37.54;13.55
70300;HTU21D;57704;51.112;5.878;2022-08-11T14:24:50;37.46;13.66
70300;HTU21D;57704;51.112;5.878;2022-08-11T14:27:26;37.32;13.65
70300;HTU21D;57704;51.112;5.878;2022-08-11T14:30:02;37.05;14.18
70300;HTU21D;57704;51.112;5.878;2022-08-11T14:32:34;36.82;14.57
70300;HTU21D;57704;51.112;5.878;2022-08-11T14:35:16;36.85;14.51
70300;HTU21D;57704;51.112;5.878;2022-08-11T14:37:49;36.83;14.62
70300;HTU21D;57704;51.112;5.878;2022-08-11T14:40:18;36.81;14.29
70300;HTU21D;57704;51.112;5.878;2022-08-11T14:43:10;36.64;14.40
70300;HTU21D;57704;51.112;5.878;2022-08-11T14:46:06;36.48;14.68
70300;HTU21D;57704;51.112;5.878;2022-08-11T14:49:17;36.42;14.85
70300;HTU21D;57704;51.112;5.878;2022-08-11T14:51:54;36.44;14.45
70300;HTU21D;57704;51.112;5.878;2022-08-11T14:54:33;36.34;15.16
70300;HTU21D;57704;51.112;5.878;2022-08-11T14:57:34;36.36;15.35
70300;HTU21D;57704;51.112;5.878;2022-08-11T15:00:07;36.25;15.10
70300;HTU21D;57704;51.112;5.878;2022-08-11T15:02:50;36.02;15.21
70300;HTU21D;57704;51.112;5.878;2022-08-11T15:05:58;35.96;15.29
70300;HTU21D;57704;51.112;5.878;2022-08-11T15:08:47;35.86;15.55
70300;HTU21D;57704;51.112;5.878;2022-08-11T15:11:28;35.90;15.70
70300;HTU21D;57704;51.112;5.878;2022-08-11T15:14:20;35.97;15.71
70300;HTU21D;57704;51.112;5.878;2022-08-11T15:17:08;35.96;15.71
70300;HTU21D;57704;51.112;5.878;2022-08-11T15:19:43;35.82;15.93
70300;HTU21D;57704;51.112;5.878;2022-08-11T15:22:32;35.69;16.02
70300;HTU21D;57704;51.112;5.878;2022-08-11T15:25:23;35.64;16.29
70300;HTU21D;57704;51.112;5.878;2022-08-11T15:27:59;35.58;16.33
70300;HTU21D;57704;51.112;5.878;2022-08-11T15:30:55;35.51;16.62
70300;HTU21D;57704;51.112;5.878;2022-08-11T15:33:45;35.49;16.79
70300;HTU21D;57704;51.112;5.878;2022-08-11T15:36:38;35.49;16.80
70300;HTU21D;57704;51.112;5.878;2022-08-11T15:39:50;35.43;16.87
70300;HTU21D;57704;51.112;5.878;2022-08-11T15:43:03;35.41;17.16
70300;HTU21D;57704;51.112;5.878;2022-08-11T15:46:01;35.47;17.16
70300;HTU21D;57704;51.112;5.878;2022-08-11T15:48:55;35.49;17.40
70300;HTU21D;57704;51.112;5.878;2022-08-11T15:51:42;35.57;17.09
70300;HTU21D;57704;51.112;5.878;2022-08-11T15:54:25;35.52;17.11
70300;HTU21D;57704;51.112;5.878;2022-08-11T15:57:09;35.44;17.25
70300;HTU21D;57704;51.112;5.878;2022-08-11T16:00:06;35.34;17.38
70300;HTU21D;57704;51.112;5.878;2022-08-11T16:03:09;35.30;17.58
70300;HTU21D;57704;51.112;5.878;2022-08-11T16:05:58;35.25;17.79
70300;HTU21D;57704;51.112;5.878;2022-08-11T16:08:39;35.18;17.77
70300;HTU21D;57704;51.112;5.878;2022-08-11T16:11:20;35.13;17.98
70300;HTU21D;57704;51.112;5.878;2022-08-11T16:13:54;35.07;17.71
70300;HTU21D;57704;51.112;5.878;2022-08-11T16:16:42;34.85;17.90
70300;HTU21D;57704;51.112;5.878;2022-08-11T16:19:14;34.74;18.16
70300;HTU21D;57704;51.112;5.878;2022-08-11T16:24:30;34.70;18.62
70300;HTU21D;57704;51.112;5.878;2022-08-11T16:27:07;34.68;18.52
70300;HTU21D;57704;51.112;5.878;2022-08-11T16:29:46;34.65;18.71
70300;HTU21D;57704;51.112;5.878;2022-08-11T16:32:20;34.68;18.65
70300;HTU21D;57704;51.112;5.878;2022-08-11T16:34:59;34.71;18.35
70300;HTU21D;57704;51.112;5.878;2022-08-11T16:37:51;34.57;18.48
70300;HTU21D;57704;51.112;5.878;2022-08-11T16:40:46;34.53;18.56
70300;HTU21D;57704;51.112;5.878;2022-08-11T16:43:18;34.53;18.44
70300;HTU21D;57704;51.112;5.878;2022-08-11T16:46:23;34.46;18.79
70300;HTU21D;57704;51.112;5.878;2022-08-11T16:49:26;34.40;18.62
70300;HTU21D;57704;51.112;5.878;2022-08-11T16:52:07;34.34;18.64
70300;HTU21D;57704;51.112;5.878;2022-08-11T16:54:41;34.23;18.68
70300;HTU21D;57704;51.112;5.878;2022-08-11T16:57:25;34.18;18.76
70300;HTU21D;57704;51.112;5.878;2022-08-11T17:00:19;34.11;18.83
70300;HTU21D;57704;51.112;5.878;2022-08-11T17:02:53;34.08;18.83
70300;HTU21D;57704;51.112;5.878;2022-08-11T17:05:46;34.05;19.13
70300;HTU21D;57704;51.112;5.878;2022-08-11T17:08:42;33.99;19.15
70300;HTU21D;57704;51.112;5.878;2022-08-11T17:11:44;33.94;19.12
70300;HTU21D;57704;51.112;5.878;2022-08-11T17:14:51;33.91;19.15
70300;HTU21D;57704;51.112;5.878;2022-08-11T17:17:32;33.85;19.04
70300;HTU21D;57704;51.112;5.878;2022-08-11T17:20:11;33.76;19.25
70300;HTU21D;57704;51.112;5.878;2022-08-11T17:22:44;33.73;19.17
70300;HTU21D;57704;51.112;5.878;2022-08-11T17:25:31;33.66;19.15
70300;HTU21D;57704;51.112;5.878;2022-08-11T17:27:59;33.56;19.27
70300;HTU21D;57704;51.112;5.878;2022-08-11T17:30:32;33.46;19.44
70300;HTU21D;57704;51.112;5.878;2022-08-11T17:33:22;33.37;19.51
70300;HTU21D;57704;51.112;5.878;2022-08-11T17:36:12;33.36;19.57
70300;HTU21D;57704;51.112;5.878;2022-08-11T17:38:46;33.33;19.60
70300;HTU21D;57704;51.112;5.878;2022-08-11T17:41:15;33.33;19.89
70300;HTU21D;57704;51.112;5.878;2022-08-11T17:44:09;33.15;19.74
70300;HTU21D;57704;51.112;5.878;2022-08-11T17:46:55;32.96;20.08
70300;HTU21D;57704;51.112;5.878;2022-08-11T17:49:40;32.85;20.28
70300;HTU21D;57704;51.112;5.878;2022-08-11T17:52:14;32.74;20.51
70300;HTU21D;57704;51.112;5.878;2022-08-11T17:55:09;32.62;20.75
70300;HTU21D;57704;51.112;5.878;2022-08-11T17:57:57;32.52;20.89
70300;HTU21D;57704;51.112;5.878;2022-08-11T18:00:45;32.41;21.18
70300;HTU21D;57704;51.112;5.878;2022-08-11T18:03:19;32.32;21.38
70300;HTU21D;57704;51.112;5.878;2022-08-11T18:06:02;32.26;21.57
70300;HTU21D;57704;51.112;5.878;2022-08-11T18:08:41;32.20;21.85
70300;HTU21D;57704;51.112;5.878;2022-08-11T18:11:34;32.17;22.07
70300;HTU21D;57704;51.112;5.878;2022-08-11T18:14:26;32.09;22.37
70300;HTU21D;57704;51.112;5.878;2022-08-11T18:17:12;32.03;22.79
70300;HTU21D;57704;51.112;5.878;2022-08-11T18:20:00;31.88;23.05
70300;HTU21D;57704;51.112;5.878;2022-08-11T18:22:47;31.82;23.16
70300;HTU21D;57704;51.112;5.878;2022-08-11T18:25:39;31.74;23.40
70300;HTU21D;57704;51.112;5.878;2022-08-11T18:28:31;31.64;23.54
70300;HTU21D;57704;51.112;5.878;2022-08-11T18:31:21;31.52;23.92
70300;HTU21D;57704;51.112;5.878;2022-08-11T18:34:12;31.36;24.02
70300;HTU21D;57704;51.112;5.878;2022-08-11T18:37:05;31.29;24.26
70300;HTU21D;57704;51.112;5.878;2022-08-11T18:39:59;31.27;24.59
70300;HTU21D;57704;51.112;5.878;2022-08-11T18:42:50;31.19;24.46
70300;HTU21D;57704;51.112;5.878;2022-08-11T18:45:39;31.09;24.54
70300;HTU21D;57704;51.112;5.878;2022-08-11T18:48:31;31.06;24.70
70300;HTU21D;57704;51.112;5.878;2022-08-11T18:51:26;31.00;24.88
70300;HTU21D;57704;51.112;5.878;2022-08-11T18:54:23;30.91;25.00
70300;HTU21D;57704;51.112;5.878;2022-08-11T18:57:14;30.80;25.08
70300;HTU21D;57704;51.112;5.878;2022-08-11T19:00:03;30.69;25.27
70300;HTU21D;57704;51.112;5.878;2022-08-11T19:02:52;30.60;25.42
70300;HTU21D;57704;51.112;5.878;2022-08-11T19:05:45;30.53;25.69
70300;HTU21D;57704;51.112;5.878;2022-08-11T19:08:37;30.49;25.77
70300;HTU21D;57704;51.112;5.878;2022-08-11T19:11:32;30.46;25.92
70300;HTU21D;57704;51.112;5.878;2022-08-11T19:14:20;30.40;26.23
70300;HTU21D;57704;51.112;5.878;2022-08-11T19:17:13;30.27;26.65
70300;HTU21D;57704;51.112;5.878;2022-08-11T19:20:03;30.15;26.91
70300;HTU21D;57704;51.112;5.878;2022-08-11T19:22:54;30.02;26.97
70300;HTU21D;57704;51.112;5.878;2022-08-11T19:25:47;29.92;27.29
70300;HTU21D;57704;51.112;5.878;2022-08-11T19:28:42;29.86;27.42
70300;HTU21D;57704;51.112;5.878;2022-08-11T19:31:33;29.78;27.69
70300;HTU21D;57704;51.112;5.878;2022-08-11T19:34:21;29.68;27.91
70300;HTU21D;57704;51.112;5.878;2022-08-11T19:37:10;29.60;27.96
70300;HTU21D;57704;51.112;5.878;2022-08-11T19:40:05;29.54;28.23
70300;HTU21D;57704;51.112;5.878;2022-08-11T19:43:01;29.49;28.48
70300;HTU21D;57704;51.112;5.878;2022-08-11T19:45:55;29.44;28.74
70300;HTU21D;57704;51.112;5.878;2022-08-11T19:48:49;29.32;29.03
70300;HTU21D;57704;51.112;5.878;2022-08-11T19:51:37;29.24;29.14
70300;HTU21D;57704;51.112;5.878;2022-08-11T19:54:31;29.21;29.46
70300;HTU21D;57704;51.112;5.878;2022-08-11T19:57:18;29.15;29.56
70300;HTU21D;57704;51.112;5.878;2022-08-11T20:00:10;29.12;29.69
70300;HTU21D;57704;51.112;5.878;2022-08-11T20:02:58;29.04;29.90
70300;HTU21D;57704;51.112;5.878;2022-08-11T20:05:47;28.99;30.18
70300;HTU21D;57704;51.112;5.878;2022-08-11T20:08:41;28.93;30.37
70300;HTU21D;57704;51.112;5.878;2022-08-11T20:11:31;28.88;30.69
70300;HTU21D;57704;51.112;5.878;2022-08-11T20:14:19;28.83;30.90
70300;HTU21D;57704;51.112;5.878;2022-08-11T20:17:09;28.77;31.06